sensor_id;sensor_type;location;lat;lon;timestamp;pressure;altitude;pressure_sealevel;temperature;humidity
67740;BME280;54536;50.090;14.420;2022-11-20T00:03:35;99150.22;;;1.51;60.16
67740;BME280;54536;50.090;14.420;2022-11-20T00:06:02;99149.78;;;1.43;60.27
67740;BME280;54536;50.090;14.420;2022-11-20T00:08:29;99147.03;;;1.30;61.16
67740;BME280;54536;50.090;14.420;2022-11-20T00:10:55;99155.91;;;1.42;62.46
67740;BME280;54536;50.090;14.420;2022-11-20T00:13:21;99151.66;;;1.41;62.14
67740;BME280;54536;50.090;14.420;2022-11-20T00:15:46;99143.94;;;1.39;61.58
67740;BME280;54536;50.090;14.420;2022-11-20T00:18:12;99156.13;;;1.53;60.96
67740;BME280;54536;50.090;14.420;2022-11-20T00:20:38;99148.03;;;1.44;61.29
67740;BME280;54536;50.090;14.420;2022-11-20T00:23:04;99146.09;;;1.63;61.43
67740;BME280;54536;50.090;14.420;2022-11-20T00:25:33;99143.59;;;1.61;62.54
67740;BME280;54536;50.090;14.420;2022-11-20T00:28:00;99139.34;;;1.60;60.85
67740;BME280;54536;50.090;14.420;2022-11-20T00:30:25;99140.41;;;1.56;60.96
67740;BME280;54536;50.090;14.420;2022-11-20T00:32:51;99142.00;;;1.43;60.87
67740;BME280;54536;50.090;14.420;2022-11-20T00:35:17;99146.03;;;1.49;61.39
67740;BME280;54536;50.090;14.420;2022-11-20T00:37:43;99143.44;;;1.49;60.40
67740;BME280;54536;50.090;14.420;2022-11-20T00:40:09;99151.03;;;1.52;61.17
67740;BME280;54536;50.090;14.420;2022-11-20T00:42:35;99154.72;;;1.32;60.98
67740;BME280;54536;50.090;14.420;2022-11-20T00:45:01;99146.53;;;1.55;60.80
67740;BME280;54536;50.090;14.420;2022-11-20T00:47:27;99149.34;;;1.67;61.82
67740;BME280;54536;50.090;14.420;2022-11-20T00:49:53;99152.69;;;1.53;60.82
67740;BME280;54536;50.090;14.420;2022-11-20T00:52:19;99150.63;;;1.44;60.72
67740;BME280;54536;50.090;14.420;2022-11-20T00:54:45;99151.72;;;1.39;61.49
67740;BME280;54536;50.090;14.420;2022-11-20T00:57:11;99148.44;;;1.52;61.18
67740;BME280;54536;50.090;14.420;2022-11-20T00:59:37;99153.53;;;1.53;60.98
67740;BME280;54536;50.090;14.420;2022-11-20T01:02:03;99151.75;;;1.70;60.95
67740;BME280;54536;50.090;14.420;2022-11-20T01:04:28;99150.25;;;1.81;60.87
67740;BME280;54536;50.090;14.420;2022-11-20T01:06:54;99143.75;;;1.74;60.03
67740;BME280;54536;50.090;14.420;2022-11-20T01:09:20;99144.28;;;1.79;60.83
67740;BME280;54536;50.090;14.420;2022-11-20T01:11:46;99145.63;;;1.86;60.98
67740;BME280;54536;50.090;14.420;2022-11-20T01:14:17;99145.75;;;1.99;60.81
67740;BME280;54536;50.090;14.420;2022-11-20T01:16:47;99146.47;;;1.87;60.16
67740;BME280;54536;50.090;14.420;2022-11-20T01:19:16;99154.88;;;2.06;60.23
67740;BME280;54536;50.090;14.420;2022-11-20T01:21:44;99145.31;;;2.07;59.74
67740;BME280;54536;50.090;14.420;2022-11-20T01:24:13;99154.06;;;2.20;58.71
67740;BME280;54536;50.090;14.420;2022-11-20T01:26:42;99153.59;;;2.28;61.29
67740;BME280;54536;50.090;14.420;2022-11-20T01:29:17;99151.00;;;2.28;59.68
67740;BME280;54536;50.090;14.420;2022-11-20T01:31:44;99147.59;;;2.27;58.66
67740;BME280;54536;50.090;14.420;2022-11-20T01:34:13;99156.16;;;2.14;59.58
67740;BME280;54536;50.090;14.420;2022-11-20T01:36:40;99138.53;;;2.04;58.63
67740;BME280;54536;50.090;14.420;2022-11-20T01:39:14;99149.56;;;2.08;58.59
67740;BME280;54536;50.090;14.420;2022-11-20T01:41:42;99148.72;;;1.93;59.83
67740;BME280;54536;50.090;14.420;2022-11-20T01:44:55;99142.06;;;2.03;60.03
67740;BME280;54536;50.090;14.420;2022-11-20T01:47:45;99140.19;;;1.91;60.47
67740;BME280;54536;50.090;14.420;2022-11-20T01:50:18;99145.00;;;1.97;59.01
67740;BME280;54536;50.090;14.420;2022-11-20T01:52:54;99139.91;;;1.96;59.03
67740;BME280;54536;50.090;14.420;2022-11-20T01:55:28;99144.28;;;1.79;59.08
67740;BME280;54536;50.090;14.420;2022-11-20T01:57:56;99137.88;;;1.86;59.51
67740;BME280;54536;50.090;14.420;2022-11-20T02:00:23;99135.69;;;1.79;59.10
67740;BME280;54536;50.090;14.420;2022-11-20T02:02:58;99137.41;;;1.94;59.14
67740;BME280;54536;50.090;14.420;2022-11-20T02:08:19;99126.38;;;1.91;59.62
67740;BME280;54536;50.090;14.420;2022-11-20T02:10:45;99115.56;;;1.98;59.62
67740;BME280;54536;50.090;14.420;2022-11-20T02:13:11;99113.38;;;2.06;58.67
67740;BME280;54536;50.090;14.420;2022-11-20T02:15:55;99107.81;;;2.13;59.85
67740;BME280;54536;50.090;14.420;2022-11-20T02:18:21;99108.47;;;2.16;58.88
67740;BME280;54536;50.090;14.420;2022-11-20T02:21:05;99103.38;;;2.15;59.15
67740;BME280;54536;50.090;14.420;2022-11-20T02:23:38;99110.31;;;2.14;59.39
67740;BME280;54536;50.090;14.420;2022-11-20T02:26:10;99101.53;;;2.17;60.35
67740;BME280;54536;50.090;14.420;2022-11-20T02:28:39;99100.59;;;2.18;59.04
67740;BME280;54536;50.090;14.420;2022-11-20T02:31:05;99101.91;;;2.25;59.32
67740;BME280;54536;50.090;14.420;2022-11-20T02:33:31;99103.59;;;2.40;58.70
67740;BME280;54536;50.090;14.420;2022-11-20T02:35:56;99098.28;;;2.42;59.88
67740;BME280;54536;50.090;14.420;2022-11-20T02:38:23;99103.94;;;2.34;58.59
67740;BME280;54536;50.090;14.420;2022-11-20T02:40:48;99092.28;;;2.41;60.10
67740;BME280;54536;50.090;14.420;2022-11-20T02:43:16;99100.13;;;2.11;59.47
67740;BME280;54536;50.090;14.420;2022-11-20T02:45:41;99105.84;;;2.02;60.24
67740;BME280;54536;50.090;14.420;2022-11-20T02:48:08;99099.19;;;2.12;58.93
67740;BME280;54536;50.090;14.420;2022-11-20T02:50:37;99097.88;;;2.05;59.78
67740;BME280;54536;50.090;14.420;2022-11-20T02:53:03;99097.53;;;2.11;59.23
67740;BME280;54536;50.090;14.420;2022-11-20T02:55:29;99085.41;;;2.11;61.72
67740;BME280;54536;50.090;14.420;2022-11-20T02:57:55;99091.06;;;2.18;59.19
67740;BME280;54536;50.090;14.420;2022-11-20T03:00:21;99094.50;;;2.33;58.99
67740;BME280;54536;50.090;14.420;2022-11-20T03:02:47;99088.63;;;2.01;58.98
67740;BME280;54536;50.090;14.420;2022-11-20T03:05:13;99082.44;;;2.18;61.16
67740;BME280;54536;50.090;14.420;2022-11-20T03:07:39;99083.19;;;2.20;59.66
67740;BME280;54536;50.090;14.420;2022-11-20T03:10:05;99084.31;;;2.30;60.09
67740;BME280;54536;50.090;14.420;2022-11-20T03:12:31;99078.91;;;2.04;59.46
67740;BME280;54536;50.090;14.420;2022-11-20T03:14:57;99082.97;;;2.08;61.20
67740;BME280;54536;50.090;14.420;2022-11-20T03:17:23;99071.84;;;1.92;59.72
67740;BME280;54536;50.090;14.420;2022-11-20T03:19:49;99081.47;;;1.90;60.81
67740;BME280;54536;50.090;14.420;2022-11-20T03:22:15;99079.91;;;1.87;59.82
67740;BME280;54536;50.090;14.420;2022-11-20T03:24:41;99082.31;;;2.05;59.92
67740;BME280;54536;50.090;14.420;2022-11-20T03:27:06;99080.50;;;2.07;60.60
67740;BME280;54536;50.090;14.420;2022-11-20T03:29:32;99085.19;;;2.00;60.17
67740;BME280;54536;50.090;14.420;2022-11-20T03:31:58;99085.03;;;2.03;60.24
67740;BME280;54536;50.090;14.420;2022-11-20T03:34:24;99089.28;;;2.19;59.79
67740;BME280;54536;50.090;14.420;2022-11-20T03:36:50;99082.72;;;2.13;59.58
67740;BME280;54536;50.090;14.420;2022-11-20T03:39:16;99077.72;;;2.10;59.53
67740;BME280;54536;50.090;14.420;2022-11-20T03:41:42;99077.66;;;2.26;59.84
67740;BME280;54536;50.090;14.420;2022-11-20T03:44:10;99076.06;;;2.23;58.96
67740;BME280;54536;50.090;14.420;2022-11-20T03:46:37;99081.25;;;2.23;58.86
67740;BME280;54536;50.090;14.420;2022-11-20T03:49:04;99094.94;;;1.97;60.14
67740;BME280;54536;50.090;14.420;2022-11-20T03:51:33;99092.81;;;2.18;59.78
67740;BME280;54536;50.090;14.420;2022-11-20T03:54:01;99094.94;;;2.11;59.94
67740;BME280;54536;50.090;14.420;2022-11-20T03:56:31;99089.84;;;2.24;60.02
67740;BME280;54536;50.090;14.420;2022-11-20T03:58:57;99099.22;;;2.41;61.03
67740;BME280;54536;50.090;14.420;2022-11-20T04:01:30;99093.56;;;2.34;59.20
67740;BME280;54536;50.090;14.420;2022-11-20T04:03:57;99096.16;;;2.34;60.14
67740;BME280;54536;50.090;14.420;2022-11-20T04:06:26;99099.22;;;2.41;60.55
67740;BME280;54536;50.090;14.420;2022-11-20T04:08:57;99098.75;;;2.34;59.22
67740;BME280;54536;50.090;14.420;2022-11-20T04:11:30;99102.47;;;2.44;59.69
67740;BME280;54536;50.090;14.420;2022-11-20T04:14:00;99098.88;;;2.32;59.78
67740;BME280;54536;50.090;14.420;2022-11-20T04:16:29;99100.16;;;2.40;59.80
67740;BME280;54536;50.090;14.420;2022-11-20T04:18:58;99099.50;;;2.36;58.85
67740;BME280;54536;50.090;14.420;2022-11-20T04:21:26;99096.81;;;2.38;59.72
67740;BME280;54536;50.090;14.420;2022-11-20T04:23:53;99102.56;;;2.43;59.20
67740;BME280;54536;50.090;14.420;2022-11-20T04:26:21;99093.84;;;2.44;59.07
67740;BME280;54536;50.090;14.420;2022-11-20T04:28:47;99100.72;;;2.59;58.75
67740;BME280;54536;50.090;14.420;2022-11-20T04:31:17;99097.19;;;2.60;59.32
67740;BME280;54536;50.090;14.420;2022-11-20T04:33:44;99104.78;;;2.63;60.08
67740;BME280;54536;50.090;14.420;2022-11-20T04:36:13;99096.91;;;2.50;59.71
67740;BME280;54536;50.090;14.420;2022-11-20T04:38:40;99094.75;;;2.71;58.61
67740;BME280;54536;50.090;14.420;2022-11-20T04:41:17;99087.28;;;2.52;59.79
67740;BME280;54536;50.090;14.420;2022-11-20T04:43:49;99084.28;;;2.73;59.84
67740;BME280;54536;50.090;14.420;2022-11-20T04:46:17;99088.09;;;2.67;59.28
67740;BME280;54536;50.090;14.420;2022-11-20T04:48:43;99079.84;;;2.75;60.03
67740;BME280;54536;50.090;14.420;2022-11-20T04:51:10;99073.28;;;2.69;59.99
67740;BME280;54536;50.090;14.420;2022-11-20T04:53:35;99072.53;;;2.67;60.36
67740;BME280;54536;50.090;14.420;2022-11-20T04:56:03;99071.72;;;2.52;59.33
67740;BME280;54536;50.090;14.420;2022-11-20T04:58:30;99062.16;;;2.53;59.19
67740;BME280;54536;50.090;14.420;2022-11-20T05:01:07;99060.22;;;2.56;59.40
67740;BME280;54536;50.090;14.420;2022-11-20T05:03:34;99057.91;;;2.52;60.15
67740;BME280;54536;50.090;14.420;2022-11-20T05:06:01;99060.03;;;2.60;60.26
67740;BME280;54536;50.090;14.420;2022-11-20T05:08:29;99056.78;;;2.56;58.93
67740;BME280;54536;50.090;14.420;2022-11-20T05:11:16;99049.81;;;2.56;58.48
67740;BME280;54536;50.090;14.420;2022-11-20T05:13:42;99054.28;;;2.69;60.25
67740;BME280;54536;50.090;14.420;2022-11-20T05:16:15;99054.09;;;2.57;59.16
67740;BME280;54536;50.090;14.420;2022-11-20T05:18:41;99055.56;;;2.47;58.14
67740;BME280;54536;50.090;14.420;2022-11-20T05:21:08;99066.41;;;2.54;59.13
67740;BME280;54536;50.090;14.420;2022-11-20T05:23:35;99058.63;;;2.54;59.39
67740;BME280;54536;50.090;14.420;2022-11-20T05:26:02;99063.72;;;2.41;58.99
67740;BME280;54536;50.090;14.420;2022-11-20T05:28:29;99070.13;;;2.50;58.83
67740;BME280;54536;50.090;14.420;2022-11-20T05:31:03;99061.06;;;2.43;58.84
67740;BME280;54536;50.090;14.420;2022-11-20T05:33:29;99057.63;;;2.56;58.93
67740;BME280;54536;50.090;14.420;2022-11-20T05:35:58;99058.06;;;2.63;58.83
67740;BME280;54536;50.090;14.420;2022-11-20T05:38:24;99055.47;;;2.34;59.35
67740;BME280;54536;50.090;14.420;2022-11-20T05:40:50;99063.66;;;2.43;59.32
67740;BME280;54536;50.090;14.420;2022-11-20T05:43:15;99063.28;;;2.34;59.37
67740;BME280;54536;50.090;14.420;2022-11-20T05:45:41;99070.03;;;2.37;58.88
67740;BME280;54536;50.090;14.420;2022-11-20T05:48:07;99062.44;;;2.34;59.50
67740;BME280;54536;50.090;14.420;2022-11-20T05:50:33;99062.63;;;2.45;58.96
67740;BME280;54536;50.090;14.420;2022-11-20T05:53:00;99070.94;;;2.65;58.63
67740;BME280;54536;50.090;14.420;2022-11-20T05:55:26;99055.66;;;2.60;58.73
67740;BME280;54536;50.090;14.420;2022-11-20T05:57:54;99076.53;;;2.30;58.79
67740;BME280;54536;50.090;14.420;2022-11-20T06:00:20;99074.31;;;2.52;58.82
67740;BME280;54536;50.090;14.420;2022-11-20T06:02:46;99074.75;;;2.45;58.88
67740;BME280;54536;50.090;14.420;2022-11-20T06:05:12;99061.03;;;2.57;58.70
67740;BME280;54536;50.090;14.420;2022-11-20T06:07:38;99057.53;;;2.44;58.50
67740;BME280;54536;50.090;14.420;2022-11-20T06:10:04;99059.09;;;2.32;58.84
67740;BME280;54536;50.090;14.420;2022-11-20T06:12:32;99067.16;;;2.56;59.49
67740;BME280;54536;50.090;14.420;2022-11-20T06:14:59;99055.09;;;2.69;58.47
67740;BME280;54536;50.090;14.420;2022-11-20T06:17:25;99047.94;;;2.73;58.29
67740;BME280;54536;50.090;14.420;2022-11-20T06:19:51;99045.28;;;2.60;57.80
67740;BME280;54536;50.090;14.420;2022-11-20T06:22:17;99046.84;;;2.63;57.86
67740;BME280;54536;50.090;14.420;2022-11-20T06:24:43;99037.59;;;2.58;57.78
67740;BME280;54536;50.090;14.420;2022-11-20T06:27:09;99038.53;;;2.43;57.68
67740;BME280;54536;50.090;14.420;2022-11-20T06:29:35;99041.50;;;2.37;58.25
67740;BME280;54536;50.090;14.420;2022-11-20T06:32:01;99035.38;;;2.38;58.77
67740;BME280;54536;50.090;14.420;2022-11-20T06:34:27;99037.22;;;2.50;58.04
67740;BME280;54536;50.090;14.420;2022-11-20T06:36:53;99040.00;;;2.47;58.02
67740;BME280;54536;50.090;14.420;2022-11-20T06:39:19;99038.44;;;2.45;58.29
67740;BME280;54536;50.090;14.420;2022-11-20T06:41:45;99037.13;;;2.38;57.84
67740;BME280;54536;50.090;14.420;2022-11-20T06:44:11;99055.31;;;2.38;58.17
67740;BME280;54536;50.090;14.420;2022-11-20T06:46:36;99045.56;;;2.41;57.87
67740;BME280;54536;50.090;14.420;2022-11-20T06:49:02;99050.59;;;2.58;58.17
67740;BME280;54536;50.090;14.420;2022-11-20T06:51:28;99046.94;;;2.61;57.82
67740;BME280;54536;50.090;14.420;2022-11-20T06:53:54;99050.00;;;2.68;57.76
67740;BME280;54536;50.090;14.420;2022-11-20T06:56:20;99050.63;;;2.71;57.85
67740;BME280;54536;50.090;14.420;2022-11-20T06:58:46;99052.13;;;2.75;58.15
67740;BME280;54536;50.090;14.420;2022-11-20T07:01:14;99038.84;;;2.80;58.14
67740;BME280;54536;50.090;14.420;2022-11-20T07:03:41;99026.53;;;2.69;57.63
67740;BME280;54536;50.090;14.420;2022-11-20T07:06:07;99027.13;;;2.60;57.70
67740;BME280;54536;50.090;14.420;2022-11-20T07:08:34;99014.78;;;2.64;58.11
67740;BME280;54536;50.090;14.420;2022-11-20T07:11:05;99013.78;;;2.52;58.92
67740;BME280;54536;50.090;14.420;2022-11-20T07:13:32;99025.00;;;2.52;58.53
67740;BME280;54536;50.090;14.420;2022-11-20T07:16:03;99023.94;;;2.69;57.94
67740;BME280;54536;50.090;14.420;2022-11-20T07:18:30;99033.59;;;2.67;58.13
67740;BME280;54536;50.090;14.420;2022-11-20T07:20:59;99040.06;;;2.74;57.02
67740;BME280;54536;50.090;14.420;2022-11-20T07:23:25;99033.38;;;2.85;57.72
67740;BME280;54536;50.090;14.420;2022-11-20T07:25:51;99028.47;;;2.80;57.59
67740;BME280;54536;50.090;14.420;2022-11-20T07:28:17;99046.44;;;2.83;57.45
67740;BME280;54536;50.090;14.420;2022-11-20T07:30:42;99043.84;;;2.83;57.49
67740;BME280;54536;50.090;14.420;2022-11-20T07:33:14;99039.88;;;2.77;57.90
67740;BME280;54536;50.090;14.420;2022-11-20T07:35:40;99042.09;;;2.84;58.25
67740;BME280;54536;50.090;14.420;2022-11-20T07:38:06;99051.97;;;3.05;58.59
67740;BME280;54536;50.090;14.420;2022-11-20T07:40:32;99048.03;;;3.13;57.23
67740;BME280;54536;50.090;14.420;2022-11-20T07:42:58;99048.47;;;2.92;57.02
67740;BME280;54536;50.090;14.420;2022-11-20T07:45:24;99040.94;;;3.02;57.61
67740;BME280;54536;50.090;14.420;2022-11-20T07:47:51;99035.38;;;2.94;57.78
67740;BME280;54536;50.090;14.420;2022-11-20T07:50:18;99034.47;;;2.95;57.50
67740;BME280;54536;50.090;14.420;2022-11-20T07:52:44;99030.38;;;2.91;57.17
67740;BME280;54536;50.090;14.420;2022-11-20T07:55:11;99035.50;;;2.92;57.23
67740;BME280;54536;50.090;14.420;2022-11-20T07:57:37;99038.72;;;2.96;57.40
67740;BME280;54536;50.090;14.420;2022-11-20T08:00:05;99033.63;;;2.94;57.50
67740;BME280;54536;50.090;14.420;2022-11-20T08:02:37;99034.91;;;3.01;57.79
67740;BME280;54536;50.090;14.420;2022-11-20T08:05:04;99035.78;;;3.15;57.56
67740;BME280;54536;50.090;14.420;2022-11-20T08:07:39;99022.38;;;3.08;56.95
67740;BME280;54536;50.090;14.420;2022-11-20T08:10:06;99022.94;;;2.99;57.17
67740;BME280;54536;50.090;14.420;2022-11-20T08:12:33;99025.59;;;3.12;56.66
67740;BME280;54536;50.090;14.420;2022-11-20T08:15:18;99018.50;;;3.01;57.02
67740;BME280;54536;50.090;14.420;2022-11-20T08:17:44;99028.28;;;2.83;57.56
67740;BME280;54536;50.090;14.420;2022-11-20T08:20:10;99035.69;;;2.89;57.87
67740;BME280;54536;50.090;14.420;2022-11-20T08:22:36;99027.19;;;3.00;57.71
67740;BME280;54536;50.090;14.420;2022-11-20T08:25:02;99026.53;;;3.11;57.78
67740;BME280;54536;50.090;14.420;2022-11-20T08:27:28;99021.97;;;3.14;57.69
67740;BME280;54536;50.090;14.420;2022-11-20T08:29:53;99018.97;;;3.20;57.42
67740;BME280;54536;50.090;14.420;2022-11-20T08:32:19;99018.81;;;3.09;58.16
67740;BME280;54536;50.090;14.420;2022-11-20T08:34:45;99020.91;;;3.17;58.35
67740;BME280;54536;50.090;14.420;2022-11-20T08:37:12;99015.25;;;2.97;57.84
67740;BME280;54536;50.090;14.420;2022-11-20T08:39:38;99020.72;;;3.20;59.04
67740;BME280;54536;50.090;14.420;2022-11-20T08:42:08;99014.91;;;3.16;58.52
67740;BME280;54536;50.090;14.420;2022-11-20T08:44:33;99011.63;;;3.40;57.81
67740;BME280;54536;50.090;14.420;2022-11-20T08:47:00;99016.19;;;3.36;57.13
67740;BME280;54536;50.090;14.420;2022-11-20T08:49:26;99004.84;;;3.24;57.88
67740;BME280;54536;50.090;14.420;2022-11-20T08:51:52;99003.00;;;3.39;57.92
67740;BME280;54536;50.090;14.420;2022-11-20T08:54:20;98995.97;;;3.41;58.10
67740;BME280;54536;50.090;14.420;2022-11-20T08:56:48;98993.59;;;3.64;58.80
67740;BME280;54536;50.090;14.420;2022-11-20T08:59:14;98988.59;;;3.48;56.85
67740;BME280;54536;50.090;14.420;2022-11-20T09:01:40;98980.03;;;3.46;57.46
67740;BME280;54536;50.090;14.420;2022-11-20T09:04:06;98981.38;;;3.39;57.10
67740;BME280;54536;50.090;14.420;2022-11-20T09:06:32;98988.91;;;3.56;56.47
67740;BME280;54536;50.090;14.420;2022-11-20T09:08:58;98997.56;;;3.57;54.99
67740;BME280;54536;50.090;14.420;2022-11-20T09:11:24;98999.19;;;3.45;55.25
67740;BME280;54536;50.090;14.420;2022-11-20T09:13:50;98998.13;;;3.35;55.87
67740;BME280;54536;50.090;14.420;2022-11-20T09:16:17;98991.69;;;3.40;55.87
67740;BME280;54536;50.090;14.420;2022-11-20T09:18:43;99006.03;;;3.46;55.98
67740;BME280;54536;50.090;14.420;2022-11-20T09:21:12;99003.09;;;3.25;57.21
67740;BME280;54536;50.090;14.420;2022-11-20T09:23:39;99000.53;;;3.38;56.48
67740;BME280;54536;50.090;14.420;2022-11-20T09:26:16;98996.34;;;3.35;56.98
67740;BME280;54536;50.090;14.420;2022-11-20T09:28:42;99003.31;;;3.35;56.79
67740;BME280;54536;50.090;14.420;2022-11-20T09:31:13;99007.19;;;3.42;58.34
67740;BME280;54536;50.090;14.420;2022-11-20T09:33:43;99005.91;;;3.35;56.93
67740;BME280;54536;50.090;14.420;2022-11-20T09:36:09;99004.50;;;3.43;58.12
67740;BME280;54536;50.090;14.420;2022-11-20T09:38:35;98998.09;;;3.22;57.98
67740;BME280;54536;50.090;14.420;2022-11-20T09:41:06;98987.81;;;3.33;58.41
67740;BME280;54536;50.090;14.420;2022-11-20T09:46:40;98988.91;;;3.56;57.83
67740;BME280;54536;50.090;14.420;2022-11-20T09:51:45;98983.59;;;3.58;58.58
67740;BME280;54536;50.090;14.420;2022-11-20T09:54:21;98976.44;;;3.74;58.37
67740;BME280;54536;50.090;14.420;2022-11-20T09:56:54;98979.56;;;3.66;59.27
67740;BME280;54536;50.090;14.420;2022-11-20T10:02:11;98966.03;;;3.61;59.97
67740;BME280;54536;50.090;14.420;2022-11-20T10:04:47;98966.66;;;3.52;59.99
67740;BME280;54536;50.090;14.420;2022-11-20T10:07:23;98971.53;;;3.69;59.50
67740;BME280;54536;50.090;14.420;2022-11-20T10:09:57;98968.84;;;3.58;60.42
67740;BME280;54536;50.090;14.420;2022-11-20T10:18:51;98946.66;;;3.40;60.36
67740;BME280;54536;50.090;14.420;2022-11-20T10:21:29;98933.25;;;3.46;60.69
67740;BME280;54536;50.090;14.420;2022-11-20T10:24:23;98935.03;;;3.45;60.99
67740;BME280;54536;50.090;14.420;2022-11-20T10:29:41;98948.78;;;3.73;60.76
67740;BME280;54536;50.090;14.420;2022-11-20T10:32:19;98961.06;;;3.71;61.78
67740;BME280;54536;50.090;14.420;2022-11-20T10:34:59;98955.84;;;3.71;61.08
67740;BME280;54536;50.090;14.420;2022-11-20T10:37:31;98931.91;;;3.66;60.76
67740;BME280;54536;50.090;14.420;2022-11-20T10:40:14;98924.53;;;3.72;60.44
67740;BME280;54536;50.090;14.420;2022-11-20T10:42:55;98939.50;;;3.69;60.85
67740;BME280;54536;50.090;14.420;2022-11-20T10:51:03;98936.28;;;3.65;60.00
67740;BME280;54536;50.090;14.420;2022-11-20T10:56:44;98931.09;;;3.91;59.59
67740;BME280;54536;50.090;14.420;2022-11-20T11:02:22;98925.59;;;3.83;60.12
67740;BME280;54536;50.090;14.420;2022-11-20T11:05:04;98920.88;;;3.88;59.67
67740;BME280;54536;50.090;14.420;2022-11-20T11:07:41;98907.41;;;3.70;60.27
67740;BME280;54536;50.090;14.420;2022-11-20T11:10:26;98904.06;;;3.81;59.88
67740;BME280;54536;50.090;14.420;2022-11-20T11:12:56;98892.78;;;4.06;59.61
67740;BME280;54536;50.090;14.420;2022-11-20T11:15:40;98883.97;;;4.32;58.63
67740;BME280;54536;50.090;14.420;2022-11-20T11:18:11;98877.47;;;4.38;59.12
67740;BME280;54536;50.090;14.420;2022-11-20T11:20:37;98879.06;;;4.28;58.87
67740;BME280;54536;50.090;14.420;2022-11-20T11:25:59;98887.22;;;4.23;59.00
67740;BME280;54536;50.090;14.420;2022-11-20T11:28:26;98889.47;;;4.28;58.83
67740;BME280;54536;50.090;14.420;2022-11-20T11:30:54;98893.66;;;4.30;58.72
67740;BME280;54536;50.090;14.420;2022-11-20T11:33:27;98886.84;;;4.40;59.12
67740;BME280;54536;50.090;14.420;2022-11-20T11:35:56;98887.13;;;4.49;59.03
67740;BME280;54536;50.090;14.420;2022-11-20T11:38:41;98881.97;;;4.60;58.52
67740;BME280;54536;50.090;14.420;2022-11-20T11:41:18;98879.81;;;4.78;57.90
67740;BME280;54536;50.090;14.420;2022-11-20T11:43:59;98881.09;;;4.48;58.51
67740;BME280;54536;50.090;14.420;2022-11-20T11:46:55;98883.88;;;4.93;58.29
67740;BME280;54536;50.090;14.420;2022-11-20T11:49:23;98883.66;;;4.96;57.77
67740;BME280;54536;50.090;14.420;2022-11-20T12:00:08;98877.91;;;5.15;57.41
67740;BME280;54536;50.090;14.420;2022-11-20T12:08:26;98882.56;;;4.87;58.13
67740;BME280;54536;50.090;14.420;2022-11-20T12:16:13;98867.13;;;4.73;59.14
67740;BME280;54536;50.090;14.420;2022-11-20T12:18:41;98855.41;;;4.79;59.64
67740;BME280;54536;50.090;14.420;2022-11-20T12:38:45;98830.94;;;4.92;58.57
67740;BME280;54536;50.090;14.420;2022-11-20T12:41:35;98825.28;;;4.87;58.48
67740;BME280;54536;50.090;14.420;2022-11-20T12:44:41;98835.91;;;4.84;58.69
67740;BME280;54536;50.090;14.420;2022-11-20T12:50:46;98820.88;;;4.88;59.83
67740;BME280;54536;50.090;14.420;2022-11-20T13:06:49;98809.91;;;5.07;60.04
67740;BME280;54536;50.090;14.420;2022-11-20T13:09:20;98806.34;;;5.08;59.36
67740;BME280;54536;50.090;14.420;2022-11-20T13:12:32;98807.31;;;5.29;59.86
67740;BME280;54536;50.090;14.420;2022-11-20T13:18:09;98815.13;;;5.29;59.48
67740;BME280;54536;50.090;14.420;2022-11-20T13:20:42;98802.09;;;5.18;59.03
67740;BME280;54536;50.090;14.420;2022-11-20T13:23:09;98797.97;;;5.27;59.03
67740;BME280;54536;50.090;14.420;2022-11-20T13:25:38;98791.09;;;5.14;59.52
67740;BME280;54536;50.090;14.420;2022-11-20T13:30:50;98790.97;;;5.16;59.23
67740;BME280;54536;50.090;14.420;2022-11-20T13:33:35;98779.13;;;5.23;59.11
67740;BME280;54536;50.090;14.420;2022-11-20T13:36:06;98770.81;;;5.29;58.41
67740;BME280;54536;50.090;14.420;2022-11-20T13:38:51;98768.09;;;5.20;58.75
67740;BME280;54536;50.090;14.420;2022-11-20T13:43:59;98782.19;;;5.06;59.83
67740;BME280;54536;50.090;14.420;2022-11-20T13:46:37;98782.69;;;5.11;59.37
67740;BME280;54536;50.090;14.420;2022-11-20T13:49:09;98781.00;;;5.10;59.65
67740;BME280;54536;50.090;14.420;2022-11-20T13:51:48;98785.84;;;4.92;59.58
67740;BME280;54536;50.090;14.420;2022-11-20T13:58:04;98777.34;;;5.01;59.83
67740;BME280;54536;50.090;14.420;2022-11-20T14:00:33;98778.59;;;4.84;60.36
67740;BME280;54536;50.090;14.420;2022-11-20T14:03:09;98771.53;;;4.98;60.21
67740;BME280;54536;50.090;14.420;2022-11-20T14:05:59;98777.81;;;5.18;60.14
67740;BME280;54536;50.090;14.420;2022-11-20T14:11:29;98767.75;;;5.24;60.61
67740;BME280;54536;50.090;14.420;2022-11-20T14:14:10;98763.97;;;5.17;59.79
67740;BME280;54536;50.090;14.420;2022-11-20T14:16:39;98751.75;;;5.29;59.75
67740;BME280;54536;50.090;14.420;2022-11-20T14:19:27;98758.38;;;5.33;60.50
67740;BME280;54536;50.090;14.420;2022-11-20T14:22:23;98768.81;;;5.22;60.23
67740;BME280;54536;50.090;14.420;2022-11-20T14:27:40;98774.97;;;5.21;60.28
67740;BME280;54536;50.090;14.420;2022-11-20T14:30:21;98772.72;;;5.16;60.48
67740;BME280;54536;50.090;14.420;2022-11-20T14:32:49;98781.84;;;5.33;59.91
67740;BME280;54536;50.090;14.420;2022-11-20T14:35:28;98771.91;;;5.38;59.57
67740;BME280;54536;50.090;14.420;2022-11-20T14:37:56;98774.53;;;5.27;59.66
67740;BME280;54536;50.090;14.420;2022-11-20T14:40:32;98762.31;;;5.27;60.06
67740;BME280;54536;50.090;14.420;2022-11-20T14:43:25;98767.84;;;5.23;60.66
67740;BME280;54536;50.090;14.420;2022-11-20T14:48:32;98771.91;;;5.27;61.00
67740;BME280;54536;50.090;14.420;2022-11-20T14:51:01;98762.91;;;5.31;60.25
67740;BME280;54536;50.090;14.420;2022-11-20T14:53:27;98768.34;;;5.28;60.20
67740;BME280;54536;50.090;14.420;2022-11-20T14:55:58;98765.50;;;5.31;60.15
67740;BME280;54536;50.090;14.420;2022-11-20T14:58:33;98775.81;;;5.32;59.98
67740;BME280;54536;50.090;14.420;2022-11-20T15:01:03;98777.00;;;5.17;60.63
67740;BME280;54536;50.090;14.420;2022-11-20T15:03:38;98767.50;;;5.16;61.06
67740;BME280;54536;50.090;14.420;2022-11-20T15:06:07;98769.63;;;5.22;60.45